sensor_id;sensor_type;location;lat;lon;timestamp;pressure;altitude;pressure_sealevel;temperature;humidity
55418;BME280;41287;47.554;7.844;2023-04-22T00:02:17;97340.59;;;16.93;62.81
55418;BME280;41287;47.554;7.844;2023-04-22T00:04:43;97346.81;;;16.93;62.84
55418;BME280;41287;47.554;7.844;2023-04-22T00:07:13;97352.22;;;16.93;62.89
55418;BME280;41287;47.554;7.844;2023-04-22T00:09:38;97343.31;;;16.93;62.85
55418;BME280;41287;47.554;7.844;2023-04-22T00:12:04;97346.81;;;16.93;62.77
55418;BME280;41287;47.554;7.844;2023-04-22T00:14:31;97347.59;;;16.94;62.81
55418;BME280;41287;47.554;7.844;2023-04-22T00:16:56;97353.00;;;16.94;62.70
55418;BME280;41287;47.554;7.844;2023-04-22T00:19:22;97350.66;;;16.92;62.82
55418;BME280;41287;47.554;7.844;2023-04-22T00:21:47;97349.88;;;16.92;62.86
55418;BME280;41287;47.554;7.844;2023-04-22T00:24:13;97344.91;;;16.94;62.83
55418;BME280;41287;47.554;7.844;2023-04-22T00:26:38;97345.69;;;16.94;62.75
55418;BME280;41287;47.554;7.844;2023-04-22T00:29:05;97350.31;;;16.94;62.68
55418;BME280;41287;47.554;7.844;2023-04-22T00:31:31;97350.31;;;16.94;62.92
55418;BME280;41287;47.554;7.844;2023-04-22T00:33:56;97347.59;;;16.94;62.91
55418;BME280;41287;47.554;7.844;2023-04-22T00:36:21;97344.91;;;16.94;62.93
55418;BME280;41287;47.554;7.844;2023-04-22T00:38:48;97345.69;;;16.94;62.91
55418;BME280;41287;47.554;7.844;2023-04-22T00:41:16;97338.69;;;16.93;63.00
55418;BME280;41287;47.554;7.844;2023-04-22T00:43:44;97336.78;;;16.94;62.71
55418;BME280;41287;47.554;7.844;2023-04-22T00:46:10;97336.44;;;16.95;62.83
55418;BME280;41287;47.554;7.844;2023-04-22T00:48:38;97336.00;;;16.93;63.00
55418;BME280;41287;47.554;7.844;2023-04-22T00:51:04;97335.66;;;16.95;62.87
55418;BME280;41287;47.554;7.844;2023-04-22T00:53:30;97332.16;;;16.94;63.04
55418;BME280;41287;47.554;7.844;2023-04-22T00:55:56;97332.94;;;16.95;62.92
55418;BME280;41287;47.554;7.844;2023-04-22T00:58:21;97332.16;;;16.94;62.91
55418;BME280;41287;47.554;7.844;2023-04-22T01:03:26;97326.75;;;16.94;62.83
55418;BME280;41287;47.554;7.844;2023-04-22T01:05:56;97325.63;;;16.95;62.91
55418;BME280;41287;47.554;7.844;2023-04-22T01:08:27;97314.00;;;16.95;62.96
55418;BME280;41287;47.554;7.844;2023-04-22T01:10:55;97322.13;;;16.95;62.83
55418;BME280;41287;47.554;7.844;2023-04-22T01:13:21;97325.94;;;16.94;62.73
55418;BME280;41287;47.554;7.844;2023-04-22T01:15:46;97324.84;;;16.95;62.84
55418;BME280;41287;47.554;7.844;2023-04-22T01:18:12;97322.13;;;16.95;62.92
55418;BME280;41287;47.554;7.844;2023-04-22T01:20:38;97326.75;;;16.94;62.92
55418;BME280;41287;47.554;7.844;2023-04-22T01:23:05;97324.84;;;16.95;62.99
55418;BME280;41287;47.554;7.844;2023-04-22T01:25:34;97326.75;;;16.94;63.05
55418;BME280;41287;47.554;7.844;2023-04-22T01:27:59;97328.31;;;16.95;62.86
55418;BME280;41287;47.554;7.844;2023-04-22T01:30:27;97326.75;;;16.94;63.04
55418;BME280;41287;47.554;7.844;2023-04-22T01:32:52;97333.75;;;16.95;63.03
55418;BME280;41287;47.554;7.844;2023-04-22T01:35:18;97333.75;;;16.95;62.75
55418;BME280;41287;47.554;7.844;2023-04-22T01:37:43;97328.31;;;16.95;62.87
55418;BME280;41287;47.554;7.844;2023-04-22T01:40:11;97331.03;;;16.95;62.88
55418;BME280;41287;47.554;7.844;2023-04-22T01:42:38;97332.16;;;16.94;62.91
55418;BME280;41287;47.554;7.844;2023-04-22T01:45:03;97339.94;;;16.96;63.02
55418;BME280;41287;47.554;7.844;2023-04-22T01:47:29;97345.34;;;16.96;62.88
55418;BME280;41287;47.554;7.844;2023-04-22T01:49:54;97346.47;;;16.95;62.94
55418;BME280;41287;47.554;7.844;2023-04-22T01:52:19;97347.28;;;16.95;62.94
55418;BME280;41287;47.554;7.844;2023-04-22T01:54:45;97346.47;;;16.95;62.95
55418;BME280;41287;47.554;7.844;2023-04-22T01:57:12;97351.56;;;16.96;62.60
55418;BME280;41287;47.554;7.844;2023-04-22T01:59:39;97349.97;;;16.95;62.85
55418;BME280;41287;47.554;7.844;2023-04-22T02:02:04;97346.47;;;16.95;63.06
55418;BME280;41287;47.554;7.844;2023-04-22T02:04:30;97352.69;;;16.95;62.74
55418;BME280;41287;47.554;7.844;2023-04-22T02:06:56;97349.19;;;16.95;63.07
55418;BME280;41287;47.554;7.844;2023-04-22T02:09:21;97357.31;;;16.95;62.81
55418;BME280;41287;47.554;7.844;2023-04-22T02:11:47;97354.59;;;16.95;63.03
55418;BME280;41287;47.554;7.844;2023-04-22T02:14:12;97365.44;;;16.95;63.11
55418;BME280;41287;47.554;7.844;2023-04-22T02:16:40;97361.59;;;16.96;62.93
55418;BME280;41287;47.554;7.844;2023-04-22T02:19:05;97365.44;;;16.95;62.83
55418;BME280;41287;47.554;7.844;2023-04-22T02:21:32;97373.53;;;16.95;62.90
55418;BME280;41287;47.554;7.844;2023-04-22T02:23:58;97366.53;;;16.94;63.04
55418;BME280;41287;47.554;7.844;2023-04-22T02:26:24;97382.44;;;16.95;62.88
55418;BME280;41287;47.554;7.844;2023-04-22T02:28:50;97379.75;;;16.95;63.05
55418;BME280;41287;47.554;7.844;2023-04-22T02:31:15;97381.66;;;16.95;63.00
55418;BME280;41287;47.554;7.844;2023-04-22T02:33:41;97385.94;;;16.96;62.98
55418;BME280;41287;47.554;7.844;2023-04-22T02:36:06;97381.66;;;16.95;62.97
55418;BME280;41287;47.554;7.844;2023-04-22T02:38:32;97387.88;;;16.95;62.64
55418;BME280;41287;47.554;7.844;2023-04-22T02:40:57;97390.56;;;16.95;62.83
55418;BME280;41287;47.554;7.844;2023-04-22T02:43:24;97390.56;;;16.95;62.99
55418;BME280;41287;47.554;7.844;2023-04-22T02:45:51;97388.97;;;16.94;62.95
55418;BME280;41287;47.554;7.844;2023-04-22T02:48:16;97384.38;;;16.95;62.94
55418;BME280;41287;47.554;7.844;2023-04-22T02:50:42;97387.06;;;16.95;62.88
55418;BME280;41287;47.554;7.844;2023-04-22T02:53:07;97385.16;;;16.95;62.90
55418;BME280;41287;47.554;7.844;2023-04-22T02:55:33;97387.88;;;16.95;62.96
55418;BME280;41287;47.554;7.844;2023-04-22T02:57:58;97394.06;;;16.96;63.09
55418;BME280;41287;47.554;7.844;2023-04-22T03:00:24;97390.56;;;16.95;62.87
55418;BME280;41287;47.554;7.844;2023-04-22T03:02:49;97398.69;;;16.95;62.94
55418;BME280;41287;47.554;7.844;2023-04-22T03:05:16;97397.91;;;16.95;62.98
55418;BME280;41287;47.554;7.844;2023-04-22T03:07:42;97402.19;;;16.96;63.09
55418;BME280;41287;47.554;7.844;2023-04-22T03:10:08;97398.69;;;16.95;62.96
55418;BME280;41287;47.554;7.844;2023-04-22T03:12:34;97398.69;;;16.95;62.89
55418;BME280;41287;47.554;7.844;2023-04-22T03:14:59;97387.88;;;16.95;62.88
55418;BME280;41287;47.554;7.844;2023-04-22T03:17:26;97386.28;;;16.94;62.91
55418;BME280;41287;47.554;7.844;2023-04-22T03:19:52;97379.75;;;16.95;63.02
55418;BME280;41287;47.554;7.844;2023-04-22T03:22:17;97384.38;;;16.95;62.87
55418;BME280;41287;47.554;7.844;2023-04-22T03:24:44;97381.66;;;16.95;62.92
55418;BME280;41287;47.554;7.844;2023-04-22T03:27:11;97389.78;;;16.95;63.21
55418;BME280;41287;47.554;7.844;2023-04-22T03:29:36;97387.06;;;16.95;62.91
55418;BME280;41287;47.554;7.844;2023-04-22T03:32:02;97395.97;;;16.95;63.06
55418;BME280;41287;47.554;7.844;2023-04-22T03:34:27;97404.09;;;16.95;63.01
55418;BME280;41287;47.554;7.844;2023-04-22T03:36:52;97408.72;;;16.95;62.86
55418;BME280;41287;47.554;7.844;2023-04-22T03:39:18;97403.31;;;16.95;62.89
55418;BME280;41287;47.554;7.844;2023-04-22T03:41:43;97397.91;;;16.95;63.08
55418;BME280;41287;47.554;7.844;2023-04-22T03:44:08;97397.91;;;16.95;62.82
55418;BME280;41287;47.554;7.844;2023-04-22T03:46:34;97396.31;;;16.94;62.99
55418;BME280;41287;47.554;7.844;2023-04-22T03:49:00;97399.81;;;16.94;62.85
55418;BME280;41287;47.554;7.844;2023-04-22T03:51:25;97399.81;;;16.94;62.90
55418;BME280;41287;47.554;7.844;2023-04-22T03:53:50;97394.41;;;16.94;62.84
55418;BME280;41287;47.554;7.844;2023-04-22T03:56:16;97397.91;;;16.95;63.08
55418;BME280;41287;47.554;7.844;2023-04-22T03:58:43;97394.41;;;16.94;63.08
55418;BME280;41287;47.554;7.844;2023-04-22T04:01:08;97397.91;;;16.95;63.04
55418;BME280;41287;47.554;7.844;2023-04-22T04:03:35;97391.69;;;16.94;62.89
55418;BME280;41287;47.554;7.844;2023-04-22T04:06:00;97391.69;;;16.94;62.93
55418;BME280;41287;47.554;7.844;2023-04-22T04:08:27;97387.88;;;16.95;62.81
55418;BME280;41287;47.554;7.844;2023-04-22T04:10:52;97394.41;;;16.94;62.87
55418;BME280;41287;47.554;7.844;2023-04-22T04:13:18;97399.03;;;16.94;63.11
55418;BME280;41287;47.554;7.844;2023-04-22T04:15:43;97387.06;;;16.95;63.05
55418;BME280;41287;47.554;7.844;2023-04-22T04:18:08;97397.09;;;16.94;62.84
55418;BME280;41287;47.554;7.844;2023-04-22T04:20:35;97394.41;;;16.94;63.03
55418;BME280;41287;47.554;7.844;2023-04-22T04:23:01;97398.69;;;16.95;62.95
55418;BME280;41287;47.554;7.844;2023-04-22T04:25:28;97384.69;;;16.93;62.89
55418;BME280;41287;47.554;7.844;2023-04-22T04:28:02;97388.97;;;16.94;62.96
55418;BME280;41287;47.554;7.844;2023-04-22T04:30:29;97388.19;;;16.94;63.07
55418;BME280;41287;47.554;7.844;2023-04-22T04:32:54;97383.56;;;16.94;63.01
55418;BME280;41287;47.554;7.844;2023-04-22T04:35:21;97386.28;;;16.94;63.04
55418;BME280;41287;47.554;7.844;2023-04-22T04:37:47;97397.09;;;16.94;63.16
55418;BME280;41287;47.554;7.844;2023-04-22T04:40:14;97385.50;;;16.94;63.17
55418;BME280;41287;47.554;7.844;2023-04-22T04:42:40;97391.69;;;16.94;63.00
55418;BME280;41287;47.554;7.844;2023-04-22T04:45:07;97378.94;;;16.95;62.94
55418;BME280;41287;47.554;7.844;2023-04-22T04:47:33;97380.88;;;16.94;62.92
55418;BME280;41287;47.554;7.844;2023-04-22T04:49:59;97378.16;;;16.94;62.87
55418;BME280;41287;47.554;7.844;2023-04-22T04:52:25;97374.66;;;16.94;63.17
55418;BME280;41287;47.554;7.844;2023-04-22T04:54:51;97380.06;;;16.94;63.00
55418;BME280;41287;47.554;7.844;2023-04-22T04:57:16;97380.06;;;16.94;62.96
55418;BME280;41287;47.554;7.844;2023-04-22T04:59:41;97390.09;;;16.93;63.09
55418;BME280;41287;47.554;7.844;2023-04-22T05:02:07;97386.28;;;16.94;63.00
55418;BME280;41287;47.554;7.844;2023-04-22T05:04:32;97380.88;;;16.94;63.16
55418;BME280;41287;47.554;7.844;2023-04-22T05:06:59;97385.50;;;16.94;63.09
55418;BME280;41287;47.554;7.844;2023-04-22T05:09:26;97384.69;;;16.93;62.95
55418;BME280;41287;47.554;7.844;2023-04-22T05:11:52;97397.09;;;16.94;63.10
55418;BME280;41287;47.554;7.844;2023-04-22T05:14:17;97396.31;;;16.94;63.15
55418;BME280;41287;47.554;7.844;2023-04-22T05:16:42;97398.22;;;16.93;63.12
55418;BME280;41287;47.554;7.844;2023-04-22T05:19:08;97395.88;;;16.92;63.17
55418;BME280;41287;47.554;7.844;2023-04-22T05:21:33;97406.34;;;16.93;63.21
55418;BME280;41287;47.554;7.844;2023-04-22T05:23:58;97405.56;;;16.93;63.25
55418;BME280;41287;47.554;7.844;2023-04-22T05:26:24;97407.84;;;16.91;63.45
55418;BME280;41287;47.554;7.844;2023-04-22T05:28:50;97409.41;;;16.92;63.32
55418;BME280;41287;47.554;7.844;2023-04-22T05:31:17;97405.13;;;16.91;63.33
55418;BME280;41287;47.554;7.844;2023-04-22T05:33:42;97412.13;;;16.92;63.31
55418;BME280;41287;47.554;7.844;2023-04-22T05:36:08;97415.94;;;16.91;63.37
55418;BME280;41287;47.554;7.844;2023-04-22T05:38:33;97420.25;;;16.92;63.46
55418;BME280;41287;47.554;7.844;2023-04-22T05:40:58;97414.03;;;16.91;63.61
55418;BME280;41287;47.554;7.844;2023-04-22T05:43:24;97407.84;;;16.91;63.34
55418;BME280;41287;47.554;7.844;2023-04-22T05:45:49;97415.16;;;16.90;63.49
55418;BME280;41287;47.554;7.844;2023-04-22T05:48:15;97422.16;;;16.91;63.61
55418;BME280;41287;47.554;7.844;2023-04-22T05:50:40;97413.25;;;16.91;63.46
55418;BME280;41287;47.554;7.844;2023-04-22T05:53:05;97424.06;;;16.91;63.35
55418;BME280;41287;47.554;7.844;2023-04-22T05:55:31;97422.16;;;16.91;63.39
55418;BME280;41287;47.554;7.844;2023-04-22T05:57:56;97424.41;;;16.89;63.46
55418;BME280;41287;47.554;7.844;2023-04-22T06:00:21;97415.94;;;16.91;63.48
55418;BME280;41287;47.554;7.844;2023-04-22T06:02:49;97419.78;;;16.90;63.47
55418;BME280;41287;47.554;7.844;2023-04-22T06:05:15;97412.44;;;16.90;63.57
55418;BME280;41287;47.554;7.844;2023-04-22T06:07:40;97419.78;;;16.90;63.46
55418;BME280;41287;47.554;7.844;2023-04-22T06:10:06;97422.47;;;16.90;63.53
55418;BME280;41287;47.554;7.844;2023-04-22T06:12:32;97428.69;;;16.90;63.56
55418;BME280;41287;47.554;7.844;2023-04-22T06:14:58;97436.00;;;16.90;63.42
55418;BME280;41287;47.554;7.844;2023-04-22T06:17:23;97438.72;;;16.90;63.48
55418;BME280;41287;47.554;7.844;2023-04-22T06:19:49;97443.34;;;16.89;63.43
55418;BME280;41287;47.554;7.844;2023-04-22T06:22:14;97434.44;;;16.89;63.56
55418;BME280;41287;47.554;7.844;2023-04-22T06:24:39;97437.94;;;16.89;63.56
55418;BME280;41287;47.554;7.844;2023-04-22T06:27:05;97449.53;;;16.90;63.56
55418;BME280;41287;47.554;7.844;2023-04-22T06:29:30;97446.38;;;16.88;63.45
55418;BME280;41287;47.554;7.844;2023-04-22T06:31:56;97451.47;;;16.89;63.58
55418;BME280;41287;47.554;7.844;2023-04-22T06:34:21;97440.63;;;16.89;63.56
55418;BME280;41287;47.554;7.844;2023-04-22T06:36:46;97449.53;;;16.90;63.55
55418;BME280;41287;47.554;7.844;2023-04-22T06:39:12;97453.38;;;16.89;63.65
55418;BME280;41287;47.554;7.844;2023-04-22T06:41:37;97460.38;;;16.90;63.62
55418;BME280;41287;47.554;7.844;2023-04-22T06:44:02;97452.59;;;16.88;63.50
55418;BME280;41287;47.554;7.844;2023-04-22T06:46:27;97460.69;;;16.88;63.59
55418;BME280;41287;47.554;7.844;2023-04-22T06:48:53;97464.19;;;16.89;63.52
55418;BME280;41287;47.554;7.844;2023-04-22T06:51:20;97454.16;;;16.89;63.59
55418;BME280;41287;47.554;7.844;2023-04-22T06:53:45;97461.16;;;16.90;63.47
55418;BME280;41287;47.554;7.844;2023-04-22T06:56:11;97460.69;;;16.88;63.54
55418;BME280;41287;47.554;7.844;2023-04-22T06:58:36;97461.50;;;16.89;63.49
55418;BME280;41287;47.554;7.844;2023-04-22T07:01:01;97461.81;;;16.87;63.55
55418;BME280;41287;47.554;7.844;2023-04-22T07:03:27;97455.28;;;16.88;63.66
55418;BME280;41287;47.554;7.844;2023-04-22T07:05:52;97457.66;;;16.90;63.50
55418;BME280;41287;47.554;7.844;2023-04-22T07:08:18;97459.56;;;16.89;63.62
55418;BME280;41287;47.554;7.844;2023-04-22T07:10:45;97458.78;;;16.89;63.50
55418;BME280;41287;47.554;7.844;2023-04-22T07:13:12;97455.63;;;16.87;63.54
55418;BME280;41287;47.554;7.844;2023-04-22T07:15:39;97457.19;;;16.88;63.65
55418;BME280;41287;47.554;7.844;2023-04-22T07:18:05;97458.00;;;16.88;63.59
55418;BME280;41287;47.554;7.844;2023-04-22T07:20:30;97453.38;;;16.89;63.57
55418;BME280;41287;47.554;7.844;2023-04-22T07:22:55;97458.78;;;16.89;63.52
55418;BME280;41287;47.554;7.844;2023-04-22T07:25:22;97446.38;;;16.88;63.51
55418;BME280;41287;47.554;7.844;2023-04-22T07:27:49;97455.28;;;16.88;63.63
55418;BME280;41287;47.554;7.844;2023-04-22T07:30:15;97459.91;;;16.88;63.43
55418;BME280;41287;47.554;7.844;2023-04-22T07:32:40;97447.50;;;16.87;63.43
55418;BME280;41287;47.554;7.844;2023-04-22T07:35:06;97451.78;;;16.88;63.75
55418;BME280;41287;47.554;7.844;2023-04-22T07:37:33;97457.19;;;16.88;63.45
55418;BME280;41287;47.554;7.844;2023-04-22T07:40:00;97442.09;;;16.87;63.56
55418;BME280;41287;47.554;7.844;2023-04-22T07:42:25;97439.38;;;16.87;63.57
55418;BME280;41287;47.554;7.844;2023-04-22T07:44:51;97442.09;;;16.87;63.56
55418;BME280;41287;47.554;7.844;2023-04-22T07:47:16;97447.50;;;16.87;63.74
55418;BME280;41287;47.554;7.844;2023-04-22T07:49:42;97449.09;;;16.88;63.79
55418;BME280;41287;47.554;7.844;2023-04-22T07:52:09;97442.09;;;16.87;63.66
55418;BME280;41287;47.554;7.844;2023-04-22T07:54:35;97448.28;;;16.87;63.98
55418;BME280;41287;47.554;7.844;2023-04-22T07:57:00;97440.16;;;16.87;63.65
55418;BME280;41287;47.554;7.844;2023-04-22T07:59:25;97416.94;;;16.86;63.59
55418;BME280;41287;47.554;7.844;2023-04-22T08:01:51;97428.56;;;16.87;63.68
55418;BME280;41287;47.554;7.844;2023-04-22T08:04:21;97413.44;;;16.86;63.66
55418;BME280;41287;47.554;7.844;2023-04-22T08:06:46;97398.00;;;16.86;63.72
55418;BME280;41287;47.554;7.844;2023-04-22T08:09:12;97399.91;;;16.86;63.71
55418;BME280;41287;47.554;7.844;2023-04-22T08:11:37;97405.00;;;16.87;63.49
55418;BME280;41287;47.554;7.844;2023-04-22T08:14:03;97405.31;;;16.86;63.50
55418;BME280;41287;47.554;7.844;2023-04-22T08:16:30;97417.72;;;16.87;63.65
55418;BME280;41287;47.554;7.844;2023-04-22T08:18:55;97430.47;;;16.86;63.65
55418;BME280;41287;47.554;7.844;2023-04-22T08:21:22;97429.69;;;16.86;63.52
55418;BME280;41287;47.554;7.844;2023-04-22T08:23:47;97430.47;;;16.86;63.75
55418;BME280;41287;47.554;7.844;2023-04-22T08:26:12;97428.56;;;16.87;63.68
55418;BME280;41287;47.554;7.844;2023-04-22T08:28:41;97416.94;;;16.86;63.77
55418;BME280;41287;47.554;7.844;2023-04-22T08:31:07;97406.91;;;16.87;63.53
55418;BME280;41287;47.554;7.844;2023-04-22T08:33:37;97403.78;;;16.85;63.66
55418;BME280;41287;47.554;7.844;2023-04-22T08:36:02;97405.31;;;16.86;63.63
55418;BME280;41287;47.554;7.844;2023-04-22T08:38:28;97412.69;;;16.85;63.55
55418;BME280;41287;47.554;7.844;2023-04-22T08:40:55;97411.91;;;16.85;63.24
55418;BME280;41287;47.554;7.844;2023-04-22T08:43:21;97396.78;;;16.84;62.97
55418;BME280;41287;47.554;7.844;2023-04-22T08:45:47;97395.19;;;16.83;62.75
55418;BME280;41287;47.554;7.844;2023-04-22T08:48:13;97387.41;;;16.81;62.48
55418;BME280;41287;47.554;7.844;2023-04-22T08:50:40;97381.22;;;16.81;62.15
55418;BME280;41287;47.554;7.844;2023-04-22T08:53:05;97393.94;;;16.80;62.25
55418;BME280;41287;47.554;7.844;2023-04-22T08:55:31;97392.03;;;16.81;61.97
55418;BME280;41287;47.554;7.844;2023-04-22T08:57:59;97385.03;;;16.80;61.86
55418;BME280;41287;47.554;7.844;2023-04-22T09:00:25;97375.00;;;16.80;61.81
55418;BME280;41287;47.554;7.844;2023-04-22T09:02:51;97378.84;;;16.79;61.60
55418;BME280;41287;47.554;7.844;2023-04-22T09:05:20;97368.00;;;16.79;61.58
55418;BME280;41287;47.554;7.844;2023-04-22T09:07:47;97372.63;;;16.79;61.38
55418;BME280;41287;47.554;7.844;2023-04-22T09:10:12;97385.41;;;16.78;61.58
55418;BME280;41287;47.554;7.844;2023-04-22T09:12:39;97388.44;;;16.77;61.30
55418;BME280;41287;47.554;7.844;2023-04-22T09:15:06;97388.44;;;16.77;61.59
55418;BME280;41287;47.554;7.844;2023-04-22T09:17:34;97383.81;;;16.77;61.38
55418;BME280;41287;47.554;7.844;2023-04-22T09:20:03;97378.41;;;16.77;61.15
55418;BME280;41287;47.554;7.844;2023-04-22T09:22:41;97377.94;;;16.75;61.18
55418;BME280;41287;47.554;7.844;2023-04-22T09:25:26;97375.56;;;16.74;61.12
55418;BME280;41287;47.554;7.844;2023-04-22T09:27:55;97370.63;;;16.76;61.24
55418;BME280;41287;47.554;7.844;2023-04-22T09:30:33;97394.19;;;16.75;61.18
55418;BME280;41287;47.554;7.844;2023-04-22T09:33:01;97388.78;;;16.75;61.17
55418;BME280;41287;47.554;7.844;2023-04-22T09:35:30;97392.59;;;16.74;61.10
55418;BME280;41287;47.554;7.844;2023-04-22T09:37:57;97400.72;;;16.74;60.94
55418;BME280;41287;47.554;7.844;2023-04-22T09:40:23;97400.72;;;16.74;61.02
55418;BME280;41287;47.554;7.844;2023-04-22T09:42:54;97408.03;;;16.74;60.94
55418;BME280;41287;47.554;7.844;2023-04-22T09:45:30;97389.44;;;16.72;60.86
55418;BME280;41287;47.554;7.844;2023-04-22T09:48:01;97395.63;;;16.73;61.00
55418;BME280;41287;47.554;7.844;2023-04-22T09:50:27;97405.31;;;16.74;60.99
55418;BME280;41287;47.554;7.844;2023-04-22T09:52:59;97387.50;;;16.73;61.02
55418;BME280;41287;47.554;7.844;2023-04-22T09:55:26;97385.59;;;16.73;60.98
55418;BME280;41287;47.554;7.844;2023-04-22T09:57:54;97376.69;;;16.73;60.88
55418;BME280;41287;47.554;7.844;2023-04-22T10:00:22;97375.91;;;16.72;60.83
55418;BME280;41287;47.554;7.844;2023-04-22T10:02:47;97386.72;;;16.72;60.78
55418;BME280;41287;47.554;7.844;2023-04-22T10:05:13;97374.00;;;16.73;60.96
55418;BME280;41287;47.554;7.844;2023-04-22T10:07:38;97377.06;;;16.71;60.88
55418;BME280;41287;47.554;7.844;2023-04-22T10:10:07;97373.56;;;16.71;60.80
55418;BME280;41287;47.554;7.844;2023-04-22T10:12:34;97379.41;;;16.73;60.81
55418;BME280;41287;47.554;7.844;2023-04-22T10:14:59;97378.59;;;16.72;60.81
55418;BME280;41287;47.554;7.844;2023-04-22T10:17:28;97379.41;;;16.73;60.66
55418;BME280;41287;47.554;7.844;2023-04-22T10:19:55;97375.56;;;16.74;60.61
55418;BME280;41287;47.554;7.844;2023-04-22T10:22:22;97363.63;;;16.75;60.61
55418;BME280;41287;47.554;7.844;2023-04-22T10:24:47;97374.78;;;16.73;60.54
55418;BME280;41287;47.554;7.844;2023-04-22T10:27:20;97378.28;;;16.74;60.56
55418;BME280;41287;47.554;7.844;2023-04-22T10:29:45;97376.03;;;16.76;60.32
55418;BME280;41287;47.554;7.844;2023-04-22T10:34:48;97378.75;;;16.76;60.00
55418;BME280;41287;47.554;7.844;2023-04-22T10:37:17;97369.50;;;16.77;60.00
55418;BME280;41287;47.554;7.844;2023-04-22T10:40:15;97371.41;;;16.76;59.93
55418;BME280;41287;47.554;7.844;2023-04-22T10:42:48;97369.94;;;16.79;59.72
55418;BME280;41287;47.554;7.844;2023-04-22T10:45:14;97373.88;;;16.81;59.86
55418;BME280;41287;47.554;7.844;2023-04-22T10:47:40;97371.19;;;16.81;59.79
55418;BME280;41287;47.554;7.844;2023-04-22T10:50:21;97374.22;;;16.80;59.44
55418;BME280;41287;47.554;7.844;2023-04-22T10:52:54;97377.72;;;16.80;59.44
55418;BME280;41287;47.554;7.844;2023-04-22T10:55:21;97378.50;;;16.81;59.35
55418;BME280;41287;47.554;7.844;2023-04-22T10:57:48;97383.91;;;16.81;59.16
55418;BME280;41287;47.554;7.844;2023-04-22T11:00:39;97376.13;;;16.79;59.10
55418;BME280;41287;47.554;7.844;2023-04-22T11:03:08;97373.09;;;16.81;58.90
55418;BME280;41287;47.554;7.844;2023-04-22T11:05:34;97382.00;;;16.81;58.81
55418;BME280;41287;47.554;7.844;2023-04-22T11:08:03;97383.59;;;16.82;58.95
55418;BME280;41287;47.554;7.844;2023-04-22T11:10:32;97380.88;;;16.82;58.96
55418;BME280;41287;47.554;7.844;2023-04-22T11:12:57;97381.34;;;16.84;59.09
55418;BME280;41287;47.554;7.844;2023-04-22T11:15:25;97380.53;;;16.84;59.10
55418;BME280;41287;47.554;7.844;2023-04-22T11:17:52;97381.34;;;16.84;59.36
55418;BME280;41287;47.554;7.844;2023-04-22T11:20:18;97378.28;;;16.86;59.64
55418;BME280;41287;47.554;7.844;2023-04-22T11:22:51;97376.03;;;16.88;59.74
55418;BME280;41287;47.554;7.844;2023-04-22T11:25:16;97381.56;;;16.91;59.57
55418;BME280;41287;47.554;7.844;2023-04-22T11:27:42;97395.41;;;17.02;60.40
55418;BME280;41287;47.554;7.844;2023-04-22T11:30:09;97384.34;;;17.07;60.05
55418;BME280;41287;47.554;7.844;2023-04-22T11:32:39;97389.75;;;17.07;60.09
55418;BME280;41287;47.554;7.844;2023-04-22T11:35:07;97383.56;;;17.07;59.75
55418;BME280;41287;47.554;7.844;2023-04-22T11:37:43;97374.22;;;17.04;59.73
55418;BME280;41287;47.554;7.844;2023-04-22T11:40:10;97361.47;;;17.05;59.68
55418;BME280;41287;47.554;7.844;2023-04-22T11:42:37;97367.22;;;17.03;59.45
55418;BME280;41287;47.554;7.844;2023-04-22T11:45:03;97373.44;;;17.04;59.28
55418;BME280;41287;47.554;7.844;2023-04-22T11:47:29;97372.97;;;17.02;59.34
55418;BME280;41287;47.554;7.844;2023-04-22T11:49:59;97366.44;;;17.03;59.21
55418;BME280;41287;47.554;7.844;2023-04-22T11:52:49;97359.44;;;17.02;58.86
55418;BME280;41287;47.554;7.844;2023-04-22T11:55:27;97358.31;;;17.03;58.80
55418;BME280;41287;47.554;7.844;2023-04-22T11:57:57;97356.41;;;17.03;58.67
55418;BME280;41287;47.554;7.844;2023-04-22T12:00:28;97356.41;;;17.03;58.77
55418;BME280;41287;47.554;7.844;2023-04-22T12:02:56;97355.28;;;17.04;58.84
55418;BME280;41287;47.554;7.844;2023-04-22T12:06:14;97358.78;;;17.05;58.56
55418;BME280;41287;47.554;7.844;2023-04-22T12:08:24;97360.34;;;17.06;58.51
55418;BME280;41287;47.554;7.844;2023-04-22T12:10:53;97357.66;;;17.06;58.56
55418;BME280;41287;47.554;7.844;2023-04-22T12:13:24;97359.56;;;17.05;58.44
55418;BME280;41287;47.554;7.844;2023-04-22T12:15:54;97353.00;;;17.06;58.31
55418;BME280;41287;47.554;7.844;2023-04-22T12:18:36;97352.22;;;17.06;58.22
55418;BME280;41287;47.554;7.844;2023-04-22T12:21:08;97356.50;;;17.07;58.06
55418;BME280;41287;47.554;7.844;2023-04-22T12:23:45;97353.78;;;17.07;58.03
55418;BME280;41287;47.554;7.844;2023-04-22T12:26:12;97354.56;;;17.07;58.48
55418;BME280;41287;47.554;7.844;2023-04-22T12:28:42;97356.16;;;17.08;58.06
55418;BME280;41287;47.554;7.844;2023-04-22T12:31:08;97356.16;;;17.08;58.16
55418;BME280;41287;47.554;7.844;2023-04-22T12:33:34;97362.38;;;17.09;57.98
55418;BME280;41287;47.554;7.844;2023-04-22T12:36:00;97360.44;;;17.09;58.05
55418;BME280;41287;47.554;7.844;2023-04-22T12:38:28;97353.44;;;17.08;58.13
55418;BME280;41287;47.554;7.844;2023-04-22T12:40:54;97358.06;;;17.08;57.89
55418;BME280;41287;47.554;7.844;2023-04-22T12:43:19;97356.50;;;17.07;57.75
55418;BME280;41287;47.554;7.844;2023-04-22T12:45:45;97351.88;;;17.07;57.79
55418;BME280;41287;47.554;7.844;2023-04-22T12:48:10;97358.06;;;17.08;57.76
55418;BME280;41287;47.554;7.844;2023-04-22T12:50:36;97348.03;;;17.08;57.58
55418;BME280;41287;47.554;7.844;2023-04-22T12:53:01;97354.69;;;17.11;57.57
55418;BME280;41287;47.554;7.844;2023-04-22T12:55:27;97348.50;;;17.10;57.65
55418;BME280;41287;47.554;7.844;2023-04-22T12:57:52;97351.19;;;17.10;57.71
55418;BME280;41287;47.554;7.844;2023-04-22T13:00:18;97352.78;;;17.11;57.68
55418;BME280;41287;47.554;7.844;2023-04-22T13:02:45;97348.16;;;17.12;57.37
55418;BME280;41287;47.554;7.844;2023-04-22T13:05:11;97340.84;;;17.12;57.34